sensor_id;sensor_type;location;lat;lon;timestamp;temperature;humidity
12408;DHT22;6268;48.188;17.134;2024-02-15T00:01:27;9.00;99.90
12408;DHT22;6268;48.188;17.134;2024-02-15T00:03:56;9.00;99.90
12408;DHT22;6268;48.188;17.134;2024-02-15T00:06:27;9.10;99.90
12408;DHT22;6268;48.188;17.134;2024-02-15T00:08:55;9.20;99.90
12408;DHT22;6268;48.188;17.134;2024-02-15T00:11:24;9.20;99.90
12408;DHT22;6268;48.188;17.134;2024-02-15T00:13:52;9.20;99.90
12408;DHT22;6268;48.188;17.134;2024-02-15T00:16:20;9.20;99.90
12408;DHT22;6268;48.188;17.134;2024-02-15T00:18:49;9.20;99.90
12408;DHT22;6268;48.188;17.134;2024-02-15T00:21:18;9.20;99.90
12408;DHT22;6268;48.188;17.134;2024-02-15T00:23:47;9.10;99.90
12408;DHT22;6268;48.188;17.134;2024-02-15T00:26:16;9.10;99.90
12408;DHT22;6268;48.188;17.134;2024-02-15T00:28:44;9.10;99.90
12408;DHT22;6268;48.188;17.134;2024-02-15T00:31:13;9.20;99.90
12408;DHT22;6268;48.188;17.134;2024-02-15T00:33:42;9.10;99.90
12408;DHT22;6268;48.188;17.134;2024-02-15T00:36:10;9.10;99.90
12408;DHT22;6268;48.188;17.134;2024-02-15T00:38:39;9.10;99.90
12408;DHT22;6268;48.188;17.134;2024-02-15T00:41:11;9.10;99.90
12408;DHT22;6268;48.188;17.134;2024-02-15T00:43:40;9.10;99.90
12408;DHT22;6268;48.188;17.134;2024-02-15T00:46:08;9.10;99.90
12408;DHT22;6268;48.188;17.134;2024-02-15T00:48:37;9.10;99.90
12408;DHT22;6268;48.188;17.134;2024-02-15T00:51:06;9.00;99.90
12408;DHT22;6268;48.188;17.134;2024-02-15T00:53:34;8.90;99.90
12408;DHT22;6268;48.188;17.134;2024-02-15T00:56:03;8.90;99.90
12408;DHT22;6268;48.188;17.134;2024-02-15T00:58:33;8.90;99.90
12408;DHT22;6268;48.188;17.134;2024-02-15T01:01:02;8.80;99.90
12408;DHT22;6268;48.188;17.134;2024-02-15T01:03:30;8.70;99.90
12408;DHT22;6268;48.188;17.134;2024-02-15T01:05:59;8.70;99.90
12408;DHT22;6268;48.188;17.134;2024-02-15T01:08:27;8.70;99.90
12408;DHT22;6268;48.188;17.134;2024-02-15T01:10:56;8.70;99.90
12408;DHT22;6268;48.188;17.134;2024-02-15T01:13:24;8.70;99.90
12408;DHT22;6268;48.188;17.134;2024-02-15T01:15:54;8.60;99.90
12408;DHT22;6268;48.188;17.134;2024-02-15T01:18:22;8.60;99.90
12408;DHT22;6268;48.188;17.134;2024-02-15T01:20:51;8.60;99.90
12408;DHT22;6268;48.188;17.134;2024-02-15T01:23:20;8.60;99.90
12408;DHT22;6268;48.188;17.134;2024-02-15T01:25:49;8.60;99.90
12408;DHT22;6268;48.188;17.134;2024-02-15T01:28:17;8.60;99.90
12408;DHT22;6268;48.188;17.134;2024-02-15T01:30:46;8.60;99.90
12408;DHT22;6268;48.188;17.134;2024-02-15T01:33:16;8.60;99.90
12408;DHT22;6268;48.188;17.134;2024-02-15T01:35:45;8.60;99.90
12408;DHT22;6268;48.188;17.134;2024-02-15T01:38:14;8.60;99.90
12408;DHT22;6268;48.188;17.134;2024-02-15T01:40:43;8.70;99.90
12408;DHT22;6268;48.188;17.134;2024-02-15T01:43:11;8.60;99.90
12408;DHT22;6268;48.188;17.134;2024-02-15T01:45:40;8.50;99.90
12408;DHT22;6268;48.188;17.134;2024-02-15T01:48:09;8.50;99.90
12408;DHT22;6268;48.188;17.134;2024-02-15T01:50:39;8.50;99.90
12408;DHT22;6268;48.188;17.134;2024-02-15T01:53:09;8.50;99.90
12408;DHT22;6268;48.188;17.134;2024-02-15T01:55:39;8.50;99.90
12408;DHT22;6268;48.188;17.134;2024-02-15T01:58:08;8.40;99.90
12408;DHT22;6268;48.188;17.134;2024-02-15T02:00:36;8.20;99.90
12408;DHT22;6268;48.188;17.134;2024-02-15T02:03:08;8.10;99.90
12408;DHT22;6268;48.188;17.134;2024-02-15T02:05:37;8.20;99.90
12408;DHT22;6268;48.188;17.134;2024-02-15T02:08:07;8.10;99.90
12408;DHT22;6268;48.188;17.134;2024-02-15T02:10:37;8.10;99.90
12408;DHT22;6268;48.188;17.134;2024-02-15T02:13:05;8.20;99.90
12408;DHT22;6268;48.188;17.134;2024-02-15T02:15:34;8.20;99.90
12408;DHT22;6268;48.188;17.134;2024-02-15T02:18:04;8.20;99.90
12408;DHT22;6268;48.188;17.134;2024-02-15T02:20:34;8.20;99.90
12408;DHT22;6268;48.188;17.134;2024-02-15T02:23:05;8.30;99.90
12408;DHT22;6268;48.188;17.134;2024-02-15T02:25:36;8.30;99.90
12408;DHT22;6268;48.188;17.134;2024-02-15T02:28:06;8.30;99.90
12408;DHT22;6268;48.188;17.134;2024-02-15T02:30:35;8.30;99.90
12408;DHT22;6268;48.188;17.134;2024-02-15T02:33:03;8.30;99.90
12408;DHT22;6268;48.188;17.134;2024-02-15T02:35:34;8.30;99.90
12408;DHT22;6268;48.188;17.134;2024-02-15T02:38:04;8.30;99.90
12408;DHT22;6268;48.188;17.134;2024-02-15T02:40:32;8.30;99.90
12408;DHT22;6268;48.188;17.134;2024-02-15T02:43:03;8.30;99.90
12408;DHT22;6268;48.188;17.134;2024-02-15T02:45:32;8.30;99.90
12408;DHT22;6268;48.188;17.134;2024-02-15T02:48:01;8.40;99.90
12408;DHT22;6268;48.188;17.134;2024-02-15T02:50:30;8.30;99.90
12408;DHT22;6268;48.188;17.134;2024-02-15T02:52:59;8.30;99.90
12408;DHT22;6268;48.188;17.134;2024-02-15T02:55:27;8.30;99.90
12408;DHT22;6268;48.188;17.134;2024-02-15T02:57:56;8.30;99.90
12408;DHT22;6268;48.188;17.134;2024-02-15T03:00:26;8.30;99.90
12408;DHT22;6268;48.188;17.134;2024-02-15T03:02:55;8.30;99.90
12408;DHT22;6268;48.188;17.134;2024-02-15T03:05:24;8.30;99.90
12408;DHT22;6268;48.188;17.134;2024-02-15T03:07:52;8.40;99.90
12408;DHT22;6268;48.188;17.134;2024-02-15T03:10:21;8.40;99.90
12408;DHT22;6268;48.188;17.134;2024-02-15T03:12:51;8.40;99.90
12408;DHT22;6268;48.188;17.134;2024-02-15T03:15:20;8.50;99.90
12408;DHT22;6268;48.188;17.134;2024-02-15T03:17:50;8.40;99.90
12408;DHT22;6268;48.188;17.134;2024-02-15T03:20:19;8.30;99.90
12408;DHT22;6268;48.188;17.134;2024-02-15T03:22:53;8.30;99.90
12408;DHT22;6268;48.188;17.134;2024-02-15T03:25:21;8.30;99.90
12408;DHT22;6268;48.188;17.134;2024-02-15T03:27:52;8.30;99.90
12408;DHT22;6268;48.188;17.134;2024-02-15T03:30:21;8.20;99.90
12408;DHT22;6268;48.188;17.134;2024-02-15T03:32:52;8.20;99.90
12408;DHT22;6268;48.188;17.134;2024-02-15T03:35:24;8.10;99.90
12408;DHT22;6268;48.188;17.134;2024-02-15T03:37:53;8.10;99.90
12408;DHT22;6268;48.188;17.134;2024-02-15T03:40:22;8.10;99.90
12408;DHT22;6268;48.188;17.134;2024-02-15T03:42:54;8.10;99.90
12408;DHT22;6268;48.188;17.134;2024-02-15T03:45:23;8.00;99.90
12408;DHT22;6268;48.188;17.134;2024-02-15T03:47:55;8.10;99.90
12408;DHT22;6268;48.188;17.134;2024-02-15T03:50:23;8.00;99.90
12408;DHT22;6268;48.188;17.134;2024-02-15T03:52:52;8.10;99.90
12408;DHT22;6268;48.188;17.134;2024-02-15T03:55:20;8.10;99.90
12408;DHT22;6268;48.188;17.134;2024-02-15T03:57:49;8.10;99.90
12408;DHT22;6268;48.188;17.134;2024-02-15T04:00:18;8.10;99.90
12408;DHT22;6268;48.188;17.134;2024-02-15T04:02:49;8.10;99.90
12408;DHT22;6268;48.188;17.134;2024-02-15T04:05:19;8.10;99.90
12408;DHT22;6268;48.188;17.134;2024-02-15T04:07:49;8.10;99.90
12408;DHT22;6268;48.188;17.134;2024-02-15T04:10:17;8.10;99.90
12408;DHT22;6268;48.188;17.134;2024-02-15T04:12:46;8.00;99.90
12408;DHT22;6268;48.188;17.134;2024-02-15T04:15:14;8.00;99.90
12408;DHT22;6268;48.188;17.134;2024-02-15T04:17:45;8.00;99.90
12408;DHT22;6268;48.188;17.134;2024-02-15T04:20:14;8.00;99.90
12408;DHT22;6268;48.188;17.134;2024-02-15T04:22:46;8.00;99.90
12408;DHT22;6268;48.188;17.134;2024-02-15T04:25:15;8.00;99.90
12408;DHT22;6268;48.188;17.134;2024-02-15T04:27:45;8.00;99.90
12408;DHT22;6268;48.188;17.134;2024-02-15T04:30:14;8.00;99.90
12408;DHT22;6268;48.188;17.134;2024-02-15T04:32:44;8.00;99.90
12408;DHT22;6268;48.188;17.134;2024-02-15T04:35:14;8.00;99.90
12408;DHT22;6268;48.188;17.134;2024-02-15T04:37:42;8.10;99.90
12408;DHT22;6268;48.188;17.134;2024-02-15T04:40:15;8.10;99.90
12408;DHT22;6268;48.188;17.134;2024-02-15T04:42:45;8.10;99.90
12408;DHT22;6268;48.188;17.134;2024-02-15T04:45:14;8.10;99.90
12408;DHT22;6268;48.188;17.134;2024-02-15T04:47:43;8.10;99.90
12408;DHT22;6268;48.188;17.134;2024-02-15T04:50:13;8.20;99.90
12408;DHT22;6268;48.188;17.134;2024-02-15T04:52:45;8.20;99.90
12408;DHT22;6268;48.188;17.134;2024-02-15T04:55:17;8.20;99.90
12408;DHT22;6268;48.188;17.134;2024-02-15T04:57:45;8.20;99.90
12408;DHT22;6268;48.188;17.134;2024-02-15T05:00:16;8.30;99.90
12408;DHT22;6268;48.188;17.134;2024-02-15T05:02:48;8.20;99.90
12408;DHT22;6268;48.188;17.134;2024-02-15T05:05:17;8.20;99.90
12408;DHT22;6268;48.188;17.134;2024-02-15T05:07:46;8.30;99.90
12408;DHT22;6268;48.188;17.134;2024-02-15T05:10:18;8.20;99.90
12408;DHT22;6268;48.188;17.134;2024-02-15T05:12:46;8.20;99.90
12408;DHT22;6268;48.188;17.134;2024-02-15T05:15:16;8.20;99.90
12408;DHT22;6268;48.188;17.134;2024-02-15T05:17:45;8.20;99.90
12408;DHT22;6268;48.188;17.134;2024-02-15T05:20:16;8.20;99.90
12408;DHT22;6268;48.188;17.134;2024-02-15T05:22:44;8.20;99.90
12408;DHT22;6268;48.188;17.134;2024-02-15T05:25:19;8.20;99.90
12408;DHT22;6268;48.188;17.134;2024-02-15T05:27:53;8.30;99.90
12408;DHT22;6268;48.188;17.134;2024-02-15T05:30:24;8.30;99.90
12408;DHT22;6268;48.188;17.134;2024-02-15T05:32:52;8.30;99.90
12408;DHT22;6268;48.188;17.134;2024-02-15T05:35:22;8.30;99.90
12408;DHT22;6268;48.188;17.134;2024-02-15T05:37:52;8.30;99.90
12408;DHT22;6268;48.188;17.134;2024-02-15T05:40:22;8.30;99.90
12408;DHT22;6268;48.188;17.134;2024-02-15T05:42:55;8.30;99.90
12408;DHT22;6268;48.188;17.134;2024-02-15T05:45:30;8.30;99.90
12408;DHT22;6268;48.188;17.134;2024-02-15T05:48:02;8.40;99.90
12408;DHT22;6268;48.188;17.134;2024-02-15T05:50:33;8.30;99.90
12408;DHT22;6268;48.188;17.134;2024-02-15T05:53:02;8.30;99.90
12408;DHT22;6268;48.188;17.134;2024-02-15T05:55:32;8.30;99.90
12408;DHT22;6268;48.188;17.134;2024-02-15T05:58:02;8.30;99.90
12408;DHT22;6268;48.188;17.134;2024-02-15T06:00:31;8.30;99.90
12408;DHT22;6268;48.188;17.134;2024-02-15T06:03:01;8.30;99.90
12408;DHT22;6268;48.188;17.134;2024-02-15T06:05:31;8.20;99.90
12408;DHT22;6268;48.188;17.134;2024-02-15T06:08:00;8.20;99.90
12408;DHT22;6268;48.188;17.134;2024-02-15T06:10:29;8.20;99.90
12408;DHT22;6268;48.188;17.134;2024-02-15T06:12:58;8.20;99.90
12408;DHT22;6268;48.188;17.134;2024-02-15T06:15:27;8.30;99.90
12408;DHT22;6268;48.188;17.134;2024-02-15T06:17:55;8.30;99.90
12408;DHT22;6268;48.188;17.134;2024-02-15T06:20:24;8.40;99.90
12408;DHT22;6268;48.188;17.134;2024-02-15T06:22:56;8.40;99.90
12408;DHT22;6268;48.188;17.134;2024-02-15T06:25:24;8.40;99.90
12408;DHT22;6268;48.188;17.134;2024-02-15T06:27:53;8.40;99.90
12408;DHT22;6268;48.188;17.134;2024-02-15T06:30:28;8.40;99.90
12408;DHT22;6268;48.188;17.134;2024-02-15T06:33:14;8.50;99.90
12408;DHT22;6268;48.188;17.134;2024-02-15T06:36:04;8.50;99.90
12408;DHT22;6268;48.188;17.134;2024-02-15T06:38:50;8.50;99.90
12408;DHT22;6268;48.188;17.134;2024-02-15T06:41:37;8.40;99.90
12408;DHT22;6268;48.188;17.134;2024-02-15T06:44:05;8.40;99.90
12408;DHT22;6268;48.188;17.134;2024-02-15T06:46:36;8.40;99.90
12408;DHT22;6268;48.188;17.134;2024-02-15T06:49:04;8.40;99.90
12408;DHT22;6268;48.188;17.134;2024-02-15T06:51:33;8.40;99.90
12408;DHT22;6268;48.188;17.134;2024-02-15T06:54:01;8.50;99.90
12408;DHT22;6268;48.188;17.134;2024-02-15T06:56:30;8.60;99.90
12408;DHT22;6268;48.188;17.134;2024-02-15T06:58:59;8.60;99.90
12408;DHT22;6268;48.188;17.134;2024-02-15T07:01:28;8.60;99.90
12408;DHT22;6268;48.188;17.134;2024-02-15T07:03:58;8.70;99.90
12408;DHT22;6268;48.188;17.134;2024-02-15T07:06:27;8.70;99.90
12408;DHT22;6268;48.188;17.134;2024-02-15T07:08:56;8.80;99.90
12408;DHT22;6268;48.188;17.134;2024-02-15T07:11:25;8.80;99.90
12408;DHT22;6268;48.188;17.134;2024-02-15T07:13:53;8.80;99.90
12408;DHT22;6268;48.188;17.134;2024-02-15T07:16:22;8.80;99.90
12408;DHT22;6268;48.188;17.134;2024-02-15T07:18:50;8.80;99.90
12408;DHT22;6268;48.188;17.134;2024-02-15T07:21:21;8.90;99.90
12408;DHT22;6268;48.188;17.134;2024-02-15T07:23:53;8.90;99.90
12408;DHT22;6268;48.188;17.134;2024-02-15T07:26:23;8.90;99.90
12408;DHT22;6268;48.188;17.134;2024-02-15T07:28:53;8.70;99.90
12408;DHT22;6268;48.188;17.134;2024-02-15T07:31:23;8.60;99.90
12408;DHT22;6268;48.188;17.134;2024-02-15T07:33:56;8.70;99.90
12408;DHT22;6268;48.188;17.134;2024-02-15T07:36:26;8.70;99.90
12408;DHT22;6268;48.188;17.134;2024-02-15T07:38:55;8.70;99.90
12408;DHT22;6268;48.188;17.134;2024-02-15T07:41:24;8.80;99.90
12408;DHT22;6268;48.188;17.134;2024-02-15T07:43:53;8.90;99.90
12408;DHT22;6268;48.188;17.134;2024-02-15T07:46:22;8.90;99.90
12408;DHT22;6268;48.188;17.134;2024-02-15T07:48:51;8.90;99.90
12408;DHT22;6268;48.188;17.134;2024-02-15T07:51:22;8.90;99.90
12408;DHT22;6268;48.188;17.134;2024-02-15T07:53:52;9.00;99.90
12408;DHT22;6268;48.188;17.134;2024-02-15T07:56:21;9.00;99.90
12408;DHT22;6268;48.188;17.134;2024-02-15T07:58:49;9.00;99.90
12408;DHT22;6268;48.188;17.134;2024-02-15T08:01:20;9.10;99.90
12408;DHT22;6268;48.188;17.134;2024-02-15T08:03:51;9.10;99.90
12408;DHT22;6268;48.188;17.134;2024-02-15T08:06:22;9.10;99.90
12408;DHT22;6268;48.188;17.134;2024-02-15T08:08:57;9.20;99.90
12408;DHT22;6268;48.188;17.134;2024-02-15T08:11:25;9.30;99.90
12408;DHT22;6268;48.188;17.134;2024-02-15T08:13:54;9.30;99.90
12408;DHT22;6268;48.188;17.134;2024-02-15T08:16:26;9.30;99.90
12408;DHT22;6268;48.188;17.134;2024-02-15T08:18:55;9.30;99.90
12408;DHT22;6268;48.188;17.134;2024-02-15T08:21:26;9.30;99.90
12408;DHT22;6268;48.188;17.134;2024-02-15T08:23:58;9.30;99.90
12408;DHT22;6268;48.188;17.134;2024-02-15T08:26:26;9.30;99.90
12408;DHT22;6268;48.188;17.134;2024-02-15T08:28:56;9.30;99.90
12408;DHT22;6268;48.188;17.134;2024-02-15T08:31:25;9.30;99.90
12408;DHT22;6268;48.188;17.134;2024-02-15T08:33:53;9.30;99.90
12408;DHT22;6268;48.188;17.134;2024-02-15T08:36:23;9.40;99.90
12408;DHT22;6268;48.188;17.134;2024-02-15T08:38:52;9.30;99.90
12408;DHT22;6268;48.188;17.134;2024-02-15T08:41:23;9.30;99.90
12408;DHT22;6268;48.188;17.134;2024-02-15T08:43:54;9.20;99.90
12408;DHT22;6268;48.188;17.134;2024-02-15T08:46:24;9.20;99.90
12408;DHT22;6268;48.188;17.134;2024-02-15T08:48:56;9.20;99.90
12408;DHT22;6268;48.188;17.134;2024-02-15T08:51:24;9.10;99.90
12408;DHT22;6268;48.188;17.134;2024-02-15T08:53:53;9.20;99.90
12408;DHT22;6268;48.188;17.134;2024-02-15T08:56:25;9.20;99.90
12408;DHT22;6268;48.188;17.134;2024-02-15T08:58:54;9.20;99.90
12408;DHT22;6268;48.188;17.134;2024-02-15T09:01:27;9.20;99.90
12408;DHT22;6268;48.188;17.134;2024-02-15T09:03:57;9.20;99.90
12408;DHT22;6268;48.188;17.134;2024-02-15T09:06:26;9.20;99.90
12408;DHT22;6268;48.188;17.134;2024-02-15T09:08:54;9.20;99.90
12408;DHT22;6268;48.188;17.134;2024-02-15T09:11:29;9.20;99.90
12408;DHT22;6268;48.188;17.134;2024-02-15T09:13:57;9.20;99.90
12408;DHT22;6268;48.188;17.134;2024-02-15T09:16:26;9.20;99.90
12408;DHT22;6268;48.188;17.134;2024-02-15T09:18:55;9.30;99.90
12408;DHT22;6268;48.188;17.134;2024-02-15T09:21:28;9.30;99.90
12408;DHT22;6268;48.188;17.134;2024-02-15T09:23:56;9.40;99.90
12408;DHT22;6268;48.188;17.134;2024-02-15T09:26:25;9.40;99.90
12408;DHT22;6268;48.188;17.134;2024-02-15T09:28:56;9.50;99.90
12408;DHT22;6268;48.188;17.134;2024-02-15T09:31:24;9.60;99.90
12408;DHT22;6268;48.188;17.134;2024-02-15T09:33:52;9.50;99.90
12408;DHT22;6268;48.188;17.134;2024-02-15T09:36:21;9.50;99.90
12408;DHT22;6268;48.188;17.134;2024-02-15T09:38:50;9.50;99.90
12408;DHT22;6268;48.188;17.134;2024-02-15T09:41:18;9.50;99.90
12408;DHT22;6268;48.188;17.134;2024-02-15T09:43:47;9.60;99.90
12408;DHT22;6268;48.188;17.134;2024-02-15T09:46:17;9.70;99.90
12408;DHT22;6268;48.188;17.134;2024-02-15T09:48:50;9.80;99.90
12408;DHT22;6268;48.188;17.134;2024-02-15T09:51:20;9.80;99.90
12408;DHT22;6268;48.188;17.134;2024-02-15T09:53:50;9.90;99.90
12408;DHT22;6268;48.188;17.134;2024-02-15T09:56:20;9.90;99.90
12408;DHT22;6268;48.188;17.134;2024-02-15T09:58:51;9.90;99.90
12408;DHT22;6268;48.188;17.134;2024-02-15T10:01:23;10.00;99.90
12408;DHT22;6268;48.188;17.134;2024-02-15T10:03:52;10.10;99.90
12408;DHT22;6268;48.188;17.134;2024-02-15T10:06:20;9.90;99.90
12408;DHT22;6268;48.188;17.134;2024-02-15T10:08:50;9.90;99.90
12408;DHT22;6268;48.188;17.134;2024-02-15T10:11:19;9.90;99.90
12408;DHT22;6268;48.188;17.134;2024-02-15T10:13:48;9.90;99.90
12408;DHT22;6268;48.188;17.134;2024-02-15T10:16:17;10.00;99.90
12408;DHT22;6268;48.188;17.134;2024-02-15T10:18:47;9.90;99.90
12408;DHT22;6268;48.188;17.134;2024-02-15T10:21:26;9.90;99.90
12408;DHT22;6268;48.188;17.134;2024-02-15T10:24:06;9.90;99.90
12408;DHT22;6268;48.188;17.134;2024-02-15T10:26:35;9.80;99.90
12408;DHT22;6268;48.188;17.134;2024-02-15T10:29:09;9.90;99.90
12408;DHT22;6268;48.188;17.134;2024-02-15T10:31:39;9.90;99.90
12408;DHT22;6268;48.188;17.134;2024-02-15T10:34:14;9.90;99.90
12408;DHT22;6268;48.188;17.134;2024-02-15T10:36:43;9.90;99.90
12408;DHT22;6268;48.188;17.134;2024-02-15T10:39:13;9.90;99.90
12408;DHT22;6268;48.188;17.134;2024-02-15T10:41:49;9.90;99.90
12408;DHT22;6268;48.188;17.134;2024-02-15T10:44:19;9.90;99.90
12408;DHT22;6268;48.188;17.134;2024-02-15T10:46:49;9.90;99.90
12408;DHT22;6268;48.188;17.134;2024-02-15T10:49:21;9.90;99.90
12408;DHT22;6268;48.188;17.134;2024-02-15T10:51:51;9.90;99.90
12408;DHT22;6268;48.188;17.134;2024-02-15T10:54:43;9.80;99.90
12408;DHT22;6268;48.188;17.134;2024-02-15T10:57:18;9.80;99.90
12408;DHT22;6268;48.188;17.134;2024-02-15T10:59:54;9.90;99.90
12408;DHT22;6268;48.188;17.134;2024-02-15T11:02:28;9.90;99.90
12408;DHT22;6268;48.188;17.134;2024-02-15T11:05:05;9.90;99.90
12408;DHT22;6268;48.188;17.134;2024-02-15T11:07:38;10.00;99.90
12408;DHT22;6268;48.188;17.134;2024-02-15T11:10:08;10.00;99.90
12408;DHT22;6268;48.188;17.134;2024-02-15T11:12:38;10.00;99.90
12408;DHT22;6268;48.188;17.134;2024-02-15T11:15:09;10.00;99.90
12408;DHT22;6268;48.188;17.134;2024-02-15T11:17:47;10.10;99.90
12408;DHT22;6268;48.188;17.134;2024-02-15T11:20:47;10.20;99.90
12408;DHT22;6268;48.188;17.134;2024-02-15T11:23:25;10.30;99.90
12408;DHT22;6268;48.188;17.134;2024-02-15T11:26:04;10.40;99.90
12408;DHT22;6268;48.188;17.134;2024-02-15T11:28:39;10.50;99.90
12408;DHT22;6268;48.188;17.134;2024-02-15T11:31:08;10.60;99.90
12408;DHT22;6268;48.188;17.134;2024-02-15T11:33:38;10.60;99.90
12408;DHT22;6268;48.188;17.134;2024-02-15T11:36:09;10.60;99.90
12408;DHT22;6268;48.188;17.134;2024-02-15T11:38:40;10.60;99.90
12408;DHT22;6268;48.188;17.134;2024-02-15T11:41:11;10.50;99.90
12408;DHT22;6268;48.188;17.134;2024-02-15T11:43:47;10.50;99.90
12408;DHT22;6268;48.188;17.134;2024-02-15T11:46:24;10.60;99.90
12408;DHT22;6268;48.188;17.134;2024-02-15T11:48:54;10.70;99.90
12408;DHT22;6268;48.188;17.134;2024-02-15T11:51:32;10.80;99.90
12408;DHT22;6268;48.188;17.134;2024-02-15T11:54:06;10.80;99.90
12408;DHT22;6268;48.188;17.134;2024-02-15T11:56:54;10.70;99.90
12408;DHT22;6268;48.188;17.134;2024-02-15T11:59:41;10.60;99.90
12408;DHT22;6268;48.188;17.134;2024-02-15T12:02:41;10.60;99.90
12408;DHT22;6268;48.188;17.134;2024-02-15T12:05:27;10.40;99.90
12408;DHT22;6268;48.188;17.134;2024-02-15T12:08:14;10.30;99.90
12408;DHT22;6268;48.188;17.134;2024-02-15T12:11:00;10.30;99.90
12408;DHT22;6268;48.188;17.134;2024-02-15T12:13:50;10.40;99.90
12408;DHT22;6268;48.188;17.134;2024-02-15T12:16:36;10.50;99.90
12408;DHT22;6268;48.188;17.134;2024-02-15T12:19:21;10.40;99.90
12408;DHT22;6268;48.188;17.134;2024-02-15T12:21:51;10.50;99.90
12408;DHT22;6268;48.188;17.134;2024-02-15T12:24:22;10.50;99.90
12408;DHT22;6268;48.188;17.134;2024-02-15T12:27:00;10.40;99.90
12408;DHT22;6268;48.188;17.134;2024-02-15T12:29:30;10.40;99.90
12408;DHT22;6268;48.188;17.134;2024-02-15T12:31:59;10.50;99.90
12408;DHT22;6268;48.188;17.134;2024-02-15T12:34:28;10.60;99.90
12408;DHT22;6268;48.188;17.134;2024-02-15T12:37:06;10.60;99.90
12408;DHT22;6268;48.188;17.134;2024-02-15T12:39:37;10.60;99.90
12408;DHT22;6268;48.188;17.134;2024-02-15T12:42:08;10.70;99.90
12408;DHT22;6268;48.188;17.134;2024-02-15T12:44:43;10.70;99.90
12408;DHT22;6268;48.188;17.134;2024-02-15T12:47:20;10.60;99.90
12408;DHT22;6268;48.188;17.134;2024-02-15T12:49:50;10.70;99.90
12408;DHT22;6268;48.188;17.134;2024-02-15T12:52:38;10.70;99.90
12408;DHT22;6268;48.188;17.134;2024-02-15T12:55:13;10.80;99.90
12408;DHT22;6268;48.188;17.134;2024-02-15T12:57:42;11.00;99.90
12408;DHT22;6268;48.188;17.134;2024-02-15T13:00:12;11.00;99.90
12408;DHT22;6268;48.188;17.134;2024-02-15T13:02:47;11.10;99.90
12408;DHT22;6268;48.188;17.134;2024-02-15T13:05:17;11.10;99.90
12408;DHT22;6268;48.188;17.134;2024-02-15T13:07:47;11.20;99.90
12408;DHT22;6268;48.188;17.134;2024-02-15T13:10:17;11.10;99.90
12408;DHT22;6268;48.188;17.134;2024-02-15T13:12:46;11.00;99.90
12408;DHT22;6268;48.188;17.134;2024-02-15T13:15:15;11.00;99.90
12408;DHT22;6268;48.188;17.134;2024-02-15T13:17:47;11.00;99.90
12408;DHT22;6268;48.188;17.134;2024-02-15T13:20:18;11.10;99.90
12408;DHT22;6268;48.188;17.134;2024-02-15T13:22:57;11.20;99.90
12408;DHT22;6268;48.188;17.134;2024-02-15T13:25:30;11.30;99.90
12408;DHT22;6268;48.188;17.134;2024-02-15T13:27:58;11.40;99.90
12408;DHT22;6268;48.188;17.134;2024-02-15T13:30:28;11.40;99.90
12408;DHT22;6268;48.188;17.134;2024-02-15T13:32:57;11.50;99.90
12408;DHT22;6268;48.188;17.134;2024-02-15T13:35:29;11.50;99.90
12408;DHT22;6268;48.188;17.134;2024-02-15T13:37:57;11.50;99.90
12408;DHT22;6268;48.188;17.134;2024-02-15T13:40:27;11.50;99.90
12408;DHT22;6268;48.188;17.134;2024-02-15T13:42:59;11.60;99.90
12408;DHT22;6268;48.188;17.134;2024-02-15T13:45:32;11.60;99.90
12408;DHT22;6268;48.188;17.134;2024-02-15T13:48:01;11.60;99.90
12408;DHT22;6268;48.188;17.134;2024-02-15T13:50:30;11.50;99.90
12408;DHT22;6268;48.188;17.134;2024-02-15T13:52:59;11.40;99.90
12408;DHT22;6268;48.188;17.134;2024-02-15T13:55:28;11.50;99.90
12408;DHT22;6268;48.188;17.134;2024-02-15T13:57:59;11.40;99.90
12408;DHT22;6268;48.188;17.134;2024-02-15T14:00:27;11.40;99.90
12408;DHT22;6268;48.188;17.134;2024-02-15T14:03:01;11.30;99.90
12408;DHT22;6268;48.188;17.134;2024-02-15T14:05:31;11.40;99.90
12408;DHT22;6268;48.188;17.134;2024-02-15T14:08:01;11.30;99.90
12408;DHT22;6268;48.188;17.134;2024-02-15T14:10:31;11.30;99.90
12408;DHT22;6268;48.188;17.134;2024-02-15T14:13:04;11.30;99.90
12408;DHT22;6268;48.188;17.134;2024-02-15T14:15:35;11.30;99.90
12408;DHT22;6268;48.188;17.134;2024-02-15T14:18:07;11.20;99.90
12408;DHT22;6268;48.188;17.134;2024-02-15T14:20:38;11.10;99.90
12408;DHT22;6268;48.188;17.134;2024-02-15T14:23:09;11.20;99.90
12408;DHT22;6268;48.188;17.134;2024-02-15T14:25:42;11.20;99.90
12408;DHT22;6268;48.188;17.134;2024-02-15T14:28:14;11.20;99.90
12408;DHT22;6268;48.188;17.134;2024-02-15T14:30:43;11.10;99.90
12408;DHT22;6268;48.188;17.134;2024-02-15T14:33:28;11.10;99.90
12408;DHT22;6268;48.188;17.134;2024-02-15T14:36:00;11.10;99.90
12408;DHT22;6268;48.188;17.134;2024-02-15T14:38:31;11.20;99.90
12408;DHT22;6268;48.188;17.134;2024-02-15T14:41:02;11.20;99.90
12408;DHT22;6268;48.188;17.134;2024-02-15T14:43:36;11.10;99.90
12408;DHT22;6268;48.188;17.134;2024-02-15T14:46:05;10.90;99.90
12408;DHT22;6268;48.188;17.134;2024-02-15T14:48:35;10.80;99.90
12408;DHT22;6268;48.188;17.134;2024-02-15T14:51:07;10.80;99.90
12408;DHT22;6268;48.188;17.134;2024-02-15T14:53:37;10.80;99.90
12408;DHT22;6268;48.188;17.134;2024-02-15T14:56:06;10.80;99.90
12408;DHT22;6268;48.188;17.134;2024-02-15T14:58:36;10.80;99.90
12408;DHT22;6268;48.188;17.134;2024-02-15T15:01:05;10.80;99.90
12408;DHT22;6268;48.188;17.134;2024-02-15T15:03:37;10.70;99.90
12408;DHT22;6268;48.188;17.134;2024-02-15T15:06:07;10.60;99.90
12408;DHT22;6268;48.188;17.134;2024-02-15T15:08:54;10.60;99.90
12408;DHT22;6268;48.188;17.134;2024-02-15T15:11:43;10.70;99.90
12408;DHT22;6268;48.188;17.134;2024-02-15T15:14:30;10.70;99.90
12408;DHT22;6268;48.188;17.134;2024-02-15T15:16:59;10.70;99.90
12408;DHT22;6268;48.188;17.134;2024-02-15T15:19:30;10.60;99.90
12408;DHT22;6268;48.188;17.134;2024-02-15T15:21:59;10.60;99.90
12408;DHT22;6268;48.188;17.134;2024-02-15T15:24:27;10.60;99.90
12408;DHT22;6268;48.188;17.134;2024-02-15T15:26:56;10.60;99.90
12408;DHT22;6268;48.188;17.134;2024-02-15T15:29:25;10.60;99.90
12408;DHT22;6268;48.188;17.134;2024-02-15T15:31:55;10.60;99.90
12408;DHT22;6268;48.188;17.134;2024-02-15T15:34:24;10.60;99.90
12408;DHT22;6268;48.188;17.134;2024-02-15T15:36:53;10.50;99.90
12408;DHT22;6268;48.188;17.134;2024-02-15T15:39:22;10.40;99.90
12408;DHT22;6268;48.188;17.134;2024-02-15T15:41:52;10.40;99.90
12408;DHT22;6268;48.188;17.134;2024-02-15T15:44:21;10.30;99.90
12408;DHT22;6268;48.188;17.134;2024-02-15T15:46:55;10.30;99.90
12408;DHT22;6268;48.188;17.134;2024-02-15T15:49:25;10.20;99.90
12408;DHT22;6268;48.188;17.134;2024-02-15T15:51:53;10.20;99.90
12408;DHT22;6268;48.188;17.134;2024-02-15T15:54:22;10.10;99.90
12408;DHT22;6268;48.188;17.134;2024-02-15T15:56:50;10.10;99.90
12408;DHT22;6268;48.188;17.134;2024-02-15T15:59:20;10.10;99.90
12408;DHT22;6268;48.188;17.134;2024-02-15T16:01:50;10.10;99.90
12408;DHT22;6268;48.188;17.134;2024-02-15T16:04:20;10.10;99.90
12408;DHT22;6268;48.188;17.134;2024-02-15T16:06:50;10.10;99.90